Sheffield, Alabama
Current Conditions -  °F | °C
As of 3:12 PM on Friday 31 Oct 2014 (Local Time) from KMSL Reporting Station
Overcast Overcast  
Wind Chill: 54°   Ceiling: 3400
Heat Index: 54°   Visibility: 10mi
Dew Point: 43°   Wind: 12mph
Humidity: 67%   Direction: 340°NNW
Pressure: 30.04"   Gusts: 20mph
Location:  34.76°N, 87.69°W
Report Text: KMSL 312012Z AUTO 34010G17KT 10SM FEW015 OVC034 12/06 A3004 RMK AO2 $
Loading
Personal Weather Stations






























Interactive Weather Map
Tropical Storm Tracking
New forecast layout! Learn more

10-Day Weather Forecast

Advertisements
Track Severe Weather on mobile